Time;durP1;ratioP1;P1;durP2;ratioP2;P2;SDS_P1;SDS_P2;PMS_P1;PMS_P2;Temp;Humidity;BMP_temperature;BMP_pressure;BME280_temperature;BME280_humidity;BME280_pressure;Samples;Min_cycle;Max_cycle;Signal;HPM_P1;HPM_P2
2022/11/15 00:00:33;;;;;;;79.33;33.40;;;9.80;99.90;;;;;;5057018;28;20185;-85
2022/11/15 00:02:59;;;;;;;85.72;35.47;;;9.90;99.90;;;;;;5056788;28;20410;-85
2022/11/15 00:05:25;;;;;;;83.03;35.67;;;9.80;99.90;;;;;;5038557;28;20177;-85
2022/11/15 00:07:51;;;;;;;85.27;31.97;;;9.80;99.90;;;;;;5038802;28;20438;-85
2022/11/15 00:10:20;;;;;;;82.97;33.60;;;9.90;99.90;;;;;;5038401;28;20431;-85
2022/11/15 00:12:45;;;;;;;83.20;26.80;;;9.90;99.90;;;;;;5056374;28;20192;-85
2022/11/15 00:15:11;;;;;;;80.53;27.13;;;9.90;99.90;;;;;;5057018;28;20179;-85
2022/11/15 00:17:37;;;;;;;83.40;29.17;;;9.90;99.90;;;;;;5038953;28;20173;-85
2022/11/15 00:20:03;;;;;;;81.73;28.97;;;9.90;99.90;;;;;;5048423;28;20188;-86
2022/11/15 00:22:36;;;;;;;79.00;26.60;;;10.00;99.90;;;;;;5062862;28;20165;-86
2022/11/15 00:25:03;;;;;;;83.30;29.95;;;10.00;99.90;;;;;;5038937;28;20646;-85
2022/11/15 00:27:29;;;;;;;83.90;31.55;;;10.00;99.90;;;;;;5038079;28;20187;-85
2022/11/15 00:30:00;;;;;;;83.60;31.40;;;10.00;99.90;;;;;;5055878;28;20185;-85
2022/11/15 00:32:26;;;;;;;79.75;26.00;;;10.00;99.90;;;;;;5038027;28;20434;-85
2022/11/15 00:34:51;;;;;;;83.03;27.00;;;10.00;99.90;;;;;;5056817;28;20582;-85
2022/11/15 00:37:17;;;;;;;82.87;26.17;;;10.00;99.90;;;;;;5056214;28;20167;-85
2022/11/15 00:39:43;;;;;;;80.80;28.97;;;10.10;99.90;;;;;;5055082;28;20705;-85
2022/11/15 00:42:08;;;;;;;81.80;31.90;;;10.10;99.90;;;;;;5056043;28;20576;-85
2022/11/15 00:44:34;;;;;;;83.07;33.13;;;10.10;99.90;;;;;;5065066;28;20229;-86
2022/11/15 00:47:00;;;;;;;82.00;32.77;;;10.20;99.90;;;;;;5067222;28;20164;-86
2022/11/15 00:49:25;;;;;;;92.00;34.80;;;10.20;99.90;;;;;;5039187;28;20189;-85
2022/11/15 00:51:51;;;;;;;89.17;35.00;;;10.20;99.90;;;;;;5056447;28;20186;-85
2022/11/15 00:54:17;;;;;;;83.93;38.57;;;10.20;99.90;;;;;;5056343;28;20185;-85
2022/11/15 00:56:42;;;;;;;84.40;37.67;;;10.20;99.90;;;;;;5056200;28;20165;-85
2022/11/15 00:59:08;;;;;;;83.70;36.10;;;10.20;99.90;;;;;;5038457;28;20239;-86
2022/11/15 01:01:34;;;;;;;85.10;36.03;;;10.20;99.90;;;;;;5058601;28;20188;-86
2022/11/15 01:03:59;;;;;;;83.97;37.37;;;10.20;99.90;;;;;;5066305;28;20165;-86
2022/11/15 01:06:25;;;;;;;84.77;35.50;;;10.20;99.90;;;;;;5048757;28;20176;-86
2022/11/15 01:08:50;;;;;;;86.60;35.53;;;10.20;99.90;;;;;;5067191;28;20196;-86
2022/11/15 01:11:16;;;;;;;85.03;32.00;;;10.20;99.90;;;;;;5045475;28;20179;-85
2022/11/15 01:13:42;;;;;;;84.83;32.17;;;10.10;99.90;;;;;;5038418;28;20204;-85
2022/11/15 01:16:16;;;;;;;84.40;32.27;;;10.20;99.90;;;;;;5056213;28;20538;-85
2022/11/15 01:18:43;;;;;;;84.95;28.75;;;10.20;99.90;;;;;;5037913;28;20579;-85
2022/11/15 01:21:19;;;;;;;81.25;27.27;;;10.20;99.90;;;;;;5037562;28;20189;-86
2022/11/15 01:23:45;;;;;;;80.85;24.42;;;10.20;99.90;;;;;;5055876;28;20239;-85
2022/11/15 01:26:14;;;;;;;80.07;25.37;;;10.30;99.90;;;;;;5056354;28;20226;-86
2022/11/15 01:28:41;;;;;;;80.13;22.88;;;10.30;99.90;;;;;;5037781;28;20314;-85
2022/11/15 01:31:14;;;;;;;79.65;24.25;;;10.30;99.90;;;;;;5038205;28;20193;-85
2022/11/15 01:33:40;;;;;;;79.53;26.27;;;10.30;99.90;;;;;;5055465;28;20189;-85
2022/11/15 01:36:16;;;;;;;82.72;29.27;;;10.30;99.90;;;;;;5055643;28;20161;-85
2022/11/15 01:38:42;;;;;;;80.57;25.60;;;10.30;99.90;;;;;;5055871;28;20145;-85
2022/11/15 01:41:18;;;;;;;82.03;28.03;;;10.30;99.90;;;;;;5056073;28;20287;-85
2022/11/15 01:43:43;;;;;;;81.88;31.85;;;10.30;99.90;;;;;;5037571;28;20167;-85
2022/11/15 01:46:12;;;;;;;86.47;30.23;;;10.30;99.90;;;;;;5037418;28;20267;-85
2022/11/15 01:48:38;;;;;;;81.35;30.00;;;10.30;99.90;;;;;;5038260;28;20164;-85
2022/11/15 01:51:09;;;;;;;81.77;30.80;;;10.40;99.90;;;;;;5037075;28;20192;-85
2022/11/15 01:53:37;;;;;;;81.40;28.30;;;10.40;99.90;;;;;;5045019;28;20190;-86
2022/11/15 01:56:09;;;;;;;82.05;25.48;;;10.40;99.90;;;;;;5046599;28;20165;-86
2022/11/15 01:58:35;;;;;;;82.03;27.65;;;10.50;99.90;;;;;;5047274;28;20184;-86
2022/11/15 02:01:01;;;;;;;81.15;28.83;;;10.50;99.90;;;;;;5065468;28;20180;-86
2022/11/15 02:03:51;;;;;;;81.80;26.90;;;10.50;99.90;;;;;;5064360;28;20177;-86
2022/11/15 02:06:18;;;;;;;82.65;27.25;;;10.60;99.90;;;;;;5046603;28;20395;-86
2022/11/15 02:08:44;;;;;;;84.93;26.65;;;10.60;99.90;;;;;;5045991;28;20587;-86
2022/11/15 02:11:10;;;;;;;83.40;30.45;;;10.60;99.90;;;;;;5063403;28;20180;-86
2022/11/15 02:13:36;;;;;;;82.70;29.23;;;10.70;99.90;;;;;;5059855;28;20188;-85
2022/11/15 02:16:35;;;;;;;83.72;32.35;;;10.70;99.90;;;;;;5067676;28;20248;-86
2022/11/15 02:19:10;;;;;;;83.30;30.58;;;10.80;99.90;;;;;;5065711;28;20177;-86
2022/11/15 02:21:55;;;;;;;82.68;31.80;;;10.90;99.90;;;;;;5065103;28;20167;-86
2022/11/15 02:24:27;;;;;;;83.85;28.88;;;11.00;99.90;;;;;;5065014;28;20148;-86
2022/11/15 02:27:11;;;;;;;83.50;33.15;;;11.00;99.90;;;;;;5039333;28;20187;-85
2022/11/15 02:29:57;;;;;;;81.85;32.65;;;11.00;99.90;;;;;;5055176;28;20239;-85
2022/11/15 02:32:39;;;;;;;80.10;27.02;;;11.10;99.90;;;;;;5037313;28;20199;-85
2022/11/15 02:35:24;;;;;;;83.45;25.50;;;11.10;99.90;;;;;;5036931;28;20744;-85
2022/11/15 02:38:16;;;;;;;82.13;28.77;;;11.00;99.90;;;;;;5037240;28;20148;-85
2022/11/15 02:41:08;;;;;;;82.22;27.70;;;11.00;99.90;;;;;;5054864;28;20340;-85
2022/11/15 02:44:07;;;;;;;80.80;27.35;;;11.00;99.90;;;;;;5018484;28;20177;-85
2022/11/15 02:49:37;;;;;;;76.97;24.70;;;11.00;99.90;;;;;;5055036;28;20239;-85
2022/11/15 02:54:33;;;;;;;78.00;22.27;;;11.00;99.90;;;;;;5113591;28;20206;-84
2022/11/15 02:57:14;;;;;;;80.45;25.48;;;11.00;99.90;;;;;;5116236;28;20151;-85
2022/11/15 03:00:06;;;;;;;78.95;26.63;;;11.00;99.90;;;;;;5102927;28;20658;-85
2022/11/15 03:02:40;;;;;;;77.05;24.63;;;11.00;99.90;;;;;;5119159;28;20149;-84
2022/11/15 03:05:15;;;;;;;77.82;25.80;;;11.00;99.90;;;;;;5120033;28;20496;-84
2022/11/15 03:07:54;;;;;;;87.30;27.08;;;11.00;99.90;;;;;;5119126;28;20158;-84
2022/11/15 03:10:35;;;;;;;85.25;28.48;;;11.00;99.90;;;;;;5118874;28;20341;-84
2022/11/15 03:13:09;;;;;;;80.20;22.17;;;11.00;99.90;;;;;;5118882;28;20189;-84
2022/11/15 03:15:44;;;;;;;76.60;23.77;;;11.00;99.90;;;;;;5120600;28;20150;-84
2022/11/15 03:18:19;;;;;;;80.22;24.50;;;11.00;99.90;;;;;;5119043;28;20150;-84
2022/11/15 03:20:46;;;;;;;83.90;26.85;;;11.10;99.90;;;;;;5120383;28;20189;-85
2022/11/15 03:23:13;;;;;;;77.78;25.23;;;11.20;99.90;;;;;;5120556;28;20500;-84
2022/11/15 03:25:45;;;;;;;76.97;22.77;;;11.20;99.90;;;;;;5120274;28;20249;-85
2022/11/15 03:28:16;;;;;;;77.60;24.92;;;11.20;99.90;;;;;;5127494;28;20715;-86
2022/11/15 03:30:43;;;;;;;77.43;23.90;;;11.20;99.90;;;;;;5130504;28;20193;-86
2022/11/15 03:33:10;;;;;;;78.75;25.20;;;11.20;99.90;;;;;;5128099;28;20254;-86
2022/11/15 03:35:40;;;;;;;78.55;24.80;;;11.20;99.90;;;;;;5128070;28;20175;-86
2022/11/15 03:38:13;;;;;;;81.25;23.38;;;11.30;99.90;;;;;;5129648;28;20186;-86
2022/11/15 03:40:49;;;;;;;75.75;24.23;;;11.30;99.90;;;;;;5129968;28;20189;-86
2022/11/15 03:43:20;;;;;;;80.35;30.52;;;11.30;99.90;;;;;;5130507;28;20160;-86
2022/11/15 03:46:07;;;;;;;79.43;28.88;;;11.30;99.90;;;;;;5130834;28;20173;-86
2022/11/15 03:48:49;;;;;;;76.20;26.13;;;11.30;99.90;;;;;;5130085;28;20173;-86
2022/11/15 03:51:15;;;;;;;77.53;22.00;;;11.40;99.90;;;;;;5129090;28;20199;-86
2022/11/15 03:53:41;;;;;;;78.85;23.92;;;11.40;99.90;;;;;;5128408;28;20665;-86
2022/11/15 03:56:07;;;;;;;78.22;27.30;;;11.40;99.90;;;;;;5128838;28;20158;-86
2022/11/15 03:58:35;;;;;;;77.83;22.33;;;11.40;99.90;;;;;;5129447;28;20257;-85
2022/11/15 04:01:01;;;;;;;77.65;25.35;;;11.40;99.90;;;;;;5128890;28;20243;-86
2022/11/15 04:03:27;;;;;;;76.23;22.80;;;11.40;99.90;;;;;;5123625;28;20171;-85
2022/11/15 04:05:52;;;;;;;75.47;25.27;;;11.50;99.90;;;;;;5119657;28;20159;-85
2022/11/15 04:08:18;;;;;;;78.20;25.20;;;11.40;99.90;;;;;;5119850;28;20166;-85
2022/11/15 04:10:44;;;;;;;75.67;24.37;;;11.40;99.90;;;;;;5120223;28;20273;-85
2022/11/15 04:13:09;;;;;;;77.50;23.37;;;11.40;99.90;;;;;;5117407;28;20232;-85
2022/11/15 04:15:35;;;;;;;76.70;25.03;;;11.40;99.90;;;;;;5118104;28;20167;-84
2022/11/15 04:18:01;;;;;;;78.65;26.80;;;11.40;99.90;;;;;;5119872;27;20278;-84
2022/11/15 04:26:20;;;;;;;74.53;23.00;;;11.40;99.90;;;;;;5119520;28;20204;-85
2022/11/15 04:31:30;;;;;;;76.32;25.17;;;11.50;99.90;;;;;;5119872;28;20673;-84
2022/11/15 04:33:56;;;;;;;80.33;22.20;;;11.50;99.90;;;;;;5119845;28;20190;-85
2022/11/15 04:39:09;;;;;;;76.28;25.20;;;11.50;99.90;;;;;;5119942;28;20594;-84
2022/11/15 04:41:35;;;;;;;76.07;24.40;;;11.40;99.90;;;;;;5118955;28;20168;-84
2022/11/15 04:44:00;;;;;;;80.17;27.67;;;11.40;99.90;;;;;;5120266;28;20162;-84
2022/11/15 04:46:26;;;;;;;78.17;28.43;;;11.40;99.90;;;;;;5119815;28;20245;-85
2022/11/15 04:48:53;;;;;;;79.45;28.42;;;11.40;99.90;;;;;;5119589;28;20211;-85
2022/11/15 04:51:19;;;;;;;78.10;25.38;;;11.40;99.90;;;;;;5119373;28;20215;-85
2022/11/15 04:53:45;;;;;;;76.07;25.77;;;11.40;99.90;;;;;;5118299;28;20284;-85
2022/11/15 04:56:11;;;;;;;77.03;26.20;;;11.40;99.90;;;;;;5119822;28;20403;-85
2022/11/15 04:58:36;;;;;;;77.30;25.10;;;11.40;99.90;;;;;;5119383;28;20165;-85
2022/11/15 05:01:16;;;;;;;76.80;25.33;;;11.40;99.90;;;;;;5123462;28;20759;-86
2022/11/15 05:06:27;;;;;;;77.53;23.38;;;11.30;99.90;;;;;;5128381;28;20154;-86
2022/11/15 05:08:53;;;;;;;75.13;24.40;;;11.20;99.90;;;;;;5128282;28;20170;-86
2022/11/15 05:11:20;;;;;;;76.10;24.35;;;11.20;99.90;;;;;;5128397;28;20167;-86
2022/11/15 05:13:45;;;;;;;74.95;23.90;;;11.20;99.90;;;;;;5126714;28;20194;-86
2022/11/15 05:16:11;;;;;;;77.23;27.23;;;11.20;99.90;;;;;;5128937;28;20208;-86
2022/11/15 05:18:40;;;;;;;78.63;25.40;;;11.10;99.90;;;;;;5127548;28;20230;-86
2022/11/15 05:21:11;;;;;;;77.22;25.50;;;11.00;99.90;;;;;;5126086;28;20208;-86
2022/11/15 05:23:38;;;;;;;76.50;22.60;;;11.00;99.90;;;;;;5126457;28;20155;-86
2022/11/15 05:26:07;;;;;;;78.30;26.98;;;11.00;99.90;;;;;;5127454;28;20168;-86
2022/11/15 05:28:34;;;;;;;78.40;25.75;;;10.90;99.90;;;;;;5128653;28;20154;-85
2022/11/15 05:31:20;;;;;;;77.68;28.13;;;10.80;99.90;;;;;;5125848;28;20629;-86
2022/11/15 05:33:51;;;;;;;75.93;22.88;;;10.80;99.90;;;;;;5126001;28;20217;-86
2022/11/15 05:36:39;;;;;;;77.00;26.02;;;10.80;99.90;;;;;;5126834;28;20152;-86
2022/11/15 05:39:06;;;;;;;76.70;22.75;;;10.70;99.90;;;;;;5222049;22;20245;-86
2022/11/15 05:41:46;;;;;;;79.95;26.42;;;10.70;99.90;;;;;;5083795;28;20587;-86
2022/11/15 05:44:14;;;;;;;76.53;24.88;;;10.60;99.90;;;;;;5085348;28;20175;-86
2022/11/15 05:46:42;;;;;;;78.60;26.90;;;10.60;99.90;;;;;;5090509;28;20175;-84
2022/11/15 05:49:12;;;;;;;75.70;25.33;;;10.60;99.90;;;;;;5087212;28;20189;-85
2022/11/15 05:51:39;;;;;;;74.95;22.13;;;10.50;99.90;;;;;;5070947;28;20157;-84
2022/11/15 05:54:04;;;;;;;79.43;21.38;;;10.50;99.90;;;;;;5070383;28;20184;-85
2022/11/15 05:56:31;;;;;;;73.80;22.27;;;10.50;99.90;;;;;;5070612;28;20168;-84
2022/11/15 05:58:58;;;;;;;74.43;21.02;;;10.50;99.90;;;;;;5070031;28;20403;-86
2022/11/15 06:01:26;;;;;;;77.10;22.88;;;10.50;99.90;;;;;;5034534;28;20156;-85
2022/11/15 06:03:52;;;;;;;79.90;26.73;;;10.40;99.90;;;;;;5050855;28;20168;-85
2022/11/15 06:06:18;;;;;;;73.70;21.70;;;10.40;99.90;;;;;;5050884;28;20175;-86
2022/11/15 06:08:43;;;;;;;78.50;19.67;;;10.40;99.90;;;;;;5068721;28;20165;-86
2022/11/15 06:11:09;;;;;;;73.40;21.20;;;10.40;99.90;;;;;;5067436;28;20217;-86
2022/11/15 06:13:35;;;;;;;74.63;21.30;;;10.40;99.90;;;;;;5049356;28;20443;-86
2022/11/15 06:16:01;;;;;;;73.30;22.98;;;10.40;99.90;;;;;;5066672;28;20408;-86
2022/11/15 06:18:27;;;;;;;74.35;21.60;;;10.30;99.90;;;;;;5068984;28;20210;-85
2022/11/15 06:20:53;;;;;;;72.78;20.27;;;10.30;99.90;;;;;;5052145;28;20211;-84
2022/11/15 06:23:19;;;;;;;74.50;21.13;;;10.30;99.90;;;;;;5052709;28;20641;-84
2022/11/15 06:25:45;;;;;;;73.37;21.33;;;10.30;99.90;;;;;;5067213;28;20172;-84
2022/11/15 06:28:11;;;;;;;72.90;20.80;;;10.20;99.90;;;;;;5069094;28;20412;-84
2022/11/15 06:30:36;;;;;;;72.37;18.80;;;10.20;99.90;;;;;;5071504;28;20427;-85
2022/11/15 06:33:04;;;;;;;72.30;18.67;;;10.20;99.90;;;;;;5071266;28;20230;-85
2022/11/15 06:35:32;;;;;;;71.25;16.83;;;10.20;99.90;;;;;;5053152;28;20175;-85
2022/11/15 06:38:07;;;;;;;71.75;18.63;;;10.20;99.90;;;;;;5070067;28;20169;-85
2022/11/15 06:40:35;;;;;;;72.88;17.05;;;10.20;99.90;;;;;;5070703;28;20192;-86
2022/11/15 06:43:00;;;;;;;72.68;19.70;;;10.10;99.90;;;;;;5052971;28;20569;-86
2022/11/15 06:45:27;;;;;;;75.07;20.07;;;10.10;99.90;;;;;;5070608;28;20252;-85
2022/11/15 06:47:53;;;;;;;72.40;18.38;;;10.10;99.90;;;;;;5051591;28;20194;-85
2022/11/15 06:50:19;;;;;;;72.50;18.97;;;10.10;99.90;;;;;;5051132;28;20188;-84
2022/11/15 06:52:44;;;;;;;74.07;18.70;;;10.10;99.90;;;;;;5070505;28;20474;-85
2022/11/15 06:55:10;;;;;;;71.70;18.27;;;10.10;99.90;;;;;;5070104;28;20418;-85
2022/11/15 06:57:36;;;;;;;73.30;19.60;;;10.10;99.90;;;;;;5070039;28;20165;-85
2022/11/15 07:00:06;;;;;;;73.78;20.85;;;10.10;99.90;;;;;;5052409;28;20190;-85
2022/11/15 07:02:31;;;;;;;73.88;16.48;;;10.00;99.90;;;;;;5069881;28;20170;-86
2022/11/15 07:05:00;;;;;;;74.20;21.97;;;10.00;99.90;;;;;;5068559;28;20184;-84
2022/11/15 07:07:25;;;;;;;73.57;18.52;;;10.00;99.90;;;;;;5050771;28;20408;-85
2022/11/15 07:09:51;;;;;;;74.90;18.50;;;10.00;99.90;;;;;;5068427;28;20212;-85
2022/11/15 07:12:17;;;;;;;76.60;21.53;;;9.90;99.90;;;;;;5068981;28;20184;-85
2022/11/15 07:14:42;;;;;;;75.40;20.33;;;9.90;99.90;;;;;;5069955;28;20161;-85
2022/11/15 07:17:08;;;;;;;71.03;17.27;;;10.00;99.90;;;;;;5069262;28;20220;-86
2022/11/15 07:19:34;;;;;;;73.60;18.00;;;10.00;99.90;;;;;;5053085;28;20184;-84
2022/11/15 07:22:00;;;;;;;71.97;16.57;;;10.00;99.90;;;;;;5072483;28;20403;-85
2022/11/15 07:24:25;;;;;;;71.00;15.73;;;10.00;99.90;;;;;;5054835;28;20240;-85
2022/11/15 07:26:51;;;;;;;72.23;16.47;;;9.90;99.90;;;;;;5071704;28;20841;-85
2022/11/15 07:29:17;;;;;;;71.57;20.23;;;9.90;99.90;;;;;;5054283;28;20188;-85
2022/11/15 07:31:43;;;;;;;72.27;17.67;;;9.90;99.90;;;;;;5072037;28;20462;-84
2022/11/15 07:34:09;;;;;;;70.47;17.30;;;10.00;99.90;;;;;;5068039;28;20192;-85
2022/11/15 07:36:35;;;;;;;71.00;18.40;;;10.10;99.90;;;;;;5070622;28;20411;-84
2022/11/15 07:39:01;;;;;;;71.00;18.87;;;10.10;99.90;;;;;;5070288;28;20175;-84
2022/11/15 07:41:27;;;;;;;71.80;20.30;;;10.20;99.90;;;;;;5070794;28;20414;-84
2022/11/15 07:43:52;;;;;;;73.80;19.40;;;10.20;99.90;;;;;;5070336;28;20167;-85
2022/11/15 07:46:18;;;;;;;72.20;20.07;;;10.20;99.90;;;;;;5070538;28;20403;-84
2022/11/15 07:48:44;;;;;;;72.27;19.47;;;10.20;99.90;;;;;;5053310;28;20183;-85
2022/11/15 07:51:14;;;;;;;71.40;15.60;;;10.20;99.90;;;;;;5072817;28;20411;-84
2022/11/15 07:53:41;;;;;;;77.70;19.50;;;10.30;99.90;;;;;;5072850;28;20273;-85
2022/11/15 07:56:07;;;;;;;70.00;15.27;;;10.30;99.90;;;;;;5073030;28;20252;-85
2022/11/15 07:58:33;;;;;;;70.35;16.08;;;10.30;99.90;;;;;;5072730;28;20161;-84
2022/11/15 08:01:06;;;;;;;69.68;15.27;;;10.30;99.90;;;;;;5071042;28;20185;-84
2022/11/15 08:03:32;;;;;;;73.90;15.45;;;10.40;99.90;;;;;;5054963;28;20251;-85
2022/11/15 08:05:59;;;;;;;71.47;12.23;;;10.40;99.90;;;;;;5072759;28;20176;-85
2022/11/15 08:08:24;;;;;;;70.75;14.05;;;10.40;99.90;;;;;;5055012;28;20172;-85
2022/11/15 08:10:50;;;;;;;71.57;14.17;;;10.40;99.90;;;;;;5072758;28;20248;-85
2022/11/15 08:13:17;;;;;;;81.18;15.48;;;10.40;99.90;;;;;;5056186;28;20192;-85
2022/11/15 08:15:43;;;;;;;68.38;13.43;;;10.50;99.90;;;;;;5055168;28;20192;-86
2022/11/15 08:18:15;;;;;;;69.45;12.60;;;10.50;99.90;;;;;;5055080;28;20191;-86
2022/11/15 08:20:41;;;;;;;70.95;10.68;;;10.50;99.90;;;;;;5073129;28;20176;-85
2022/11/15 08:23:08;;;;;;;70.28;9.27;;;10.50;99.90;;;;;;5073361;28;20187;-85
2022/11/15 08:25:35;;;;;;;69.13;10.85;;;10.60;99.90;;;;;;5054847;28;20173;-84
2022/11/15 08:28:03;;;;;;;70.35;8.93;;;10.60;99.90;;;;;;5071927;28;20173;-84
2022/11/15 08:30:31;;;;;;;76.68;11.32;;;10.60;99.90;;;;;;5072157;28;20181;-85
2022/11/15 08:32:58;;;;;;;68.03;10.60;;;10.60;99.90;;;;;;5053976;28;20203;-84
2022/11/15 08:35:24;;;;;;;71.18;10.77;;;10.60;99.90;;;;;;5071605;28;20164;-85
2022/11/15 08:37:53;;;;;;;69.82;12.70;;;10.60;99.90;;;;;;5071949;28;20164;-85
2022/11/15 08:40:19;;;;;;;68.68;12.25;;;10.70;99.90;;;;;;5071455;28;20196;-85
2022/11/15 08:42:48;;;;;;;70.18;13.23;;;10.70;99.90;;;;;;5071334;28;20215;-86
2022/11/15 08:45:15;;;;;;;72.97;13.70;;;10.70;99.90;;;;;;5070488;28;20158;-84
2022/11/15 08:47:40;;;;;;;69.70;13.50;;;10.70;99.90;;;;;;5070930;28;20249;-86
2022/11/15 08:50:07;;;;;;;71.17;13.60;;;10.80;99.90;;;;;;5069780;28;20783;-86
2022/11/15 08:52:33;;;;;;;68.97;12.05;;;10.80;99.90;;;;;;5072318;28;20213;-84
2022/11/15 08:54:59;;;;;;;67.97;10.13;;;10.90;99.90;;;;;;5074398;28;20164;-84
2022/11/15 08:57:27;;;;;;;67.80;9.43;;;11.00;99.90;;;;;;5073782;28;20161;-84
2022/11/15 08:59:53;;;;;;;68.35;9.57;;;11.00;99.90;;;;;;5073239;28;20176;-84
2022/11/15 09:02:19;;;;;;;68.13;10.50;;;11.10;99.90;;;;;;5073596;28;20165;-85
2022/11/15 09:04:45;;;;;;;68.30;10.53;;;11.20;99.90;;;;;;5056306;28;20423;-84
2022/11/15 09:07:11;;;;;;;68.00;7.53;;;11.20;99.90;;;;;;5073708;28;20158;-85
2022/11/15 09:09:38;;;;;;;69.38;6.63;;;11.30;99.90;;;;;;5072392;28;20431;-85
2022/11/15 09:12:05;;;;;;;67.40;6.70;;;11.30;99.90;;;;;;5074388;28;20219;-86
2022/11/15 09:14:31;;;;;;;66.45;7.70;;;11.30;99.90;;;;;;5073663;28;20187;-86
2022/11/15 09:16:58;;;;;;;70.68;7.07;;;11.40;99.90;;;;;;5073597;28;20193;-84
2022/11/15 09:19:23;;;;;;;66.63;7.70;;;11.40;99.90;;;;;;5072151;28;20619;-84
2022/11/15 09:21:49;;;;;;;66.80;7.47;;;11.50;99.90;;;;;;5073594;28;20168;-84
2022/11/15 09:24:15;;;;;;;66.13;6.47;;;11.50;99.90;;;;;;5072785;28;20175;-85
2022/11/15 09:26:41;;;;;;;67.30;7.00;;;11.60;99.90;;;;;;5072749;28;20178;-84
2022/11/15 09:29:06;;;;;;;67.90;7.40;;;11.70;99.90;;;;;;5072398;28;20192;-84
2022/11/15 09:31:32;;;;;;;66.20;7.57;;;11.80;99.90;;;;;;5071986;28;20411;-86
2022/11/15 09:33:58;;;;;;;65.90;5.97;;;11.80;99.90;;;;;;5071313;28;20192;-85
2022/11/15 09:36:24;;;;;;;66.30;7.00;;;11.90;99.90;;;;;;5071059;28;20164;-85
2022/11/15 09:38:50;;;;;;;70.25;7.15;;;11.90;99.90;;;;;;5072042;28;20714;-85
2022/11/15 09:41:16;;;;;;;68.47;5.33;;;12.00;99.90;;;;;;5056042;28;20191;-86
2022/11/15 09:43:51;;;;;;;68.90;4.63;;;12.10;99.90;;;;;;5071677;28;20415;-85
2022/11/15 09:46:44;;;;;;;71.65;4.43;;;12.10;99.90;;;;;;5071139;28;20411;-84
2022/11/15 09:49:14;;;;;;;65.03;4.18;;;12.10;99.90;;;;;;5071998;28;20189;-85
2022/11/15 09:51:47;;;;;;;64.30;4.38;;;12.20;99.90;;;;;;5070878;28;20213;-86
2022/11/15 09:54:41;;;;;;;64.03;4.30;;;12.30;99.90;;;;;;5072372;28;20198;-85
2022/11/15 09:57:12;;;;;;;64.78;3.90;;;12.30;99.90;;;;;;5069426;28;20161;-85
2022/11/15 10:00:02;;;;;;;64.50;3.85;;;12.30;99.90;;;;;;5070673;28;20184;-85
2022/11/15 10:02:51;;;;;;;66.18;3.92;;;12.40;99.90;;;;;;5069638;28;20161;-85
2022/11/15 10:05:22;;;;;;;65.30;4.55;;;12.50;99.90;;;;;;5061972;28;20263;-84
2022/11/15 10:08:00;;;;;;;66.55;4.28;;;12.50;99.90;;;;;;5072068;28;20156;-85
2022/11/15 10:10:51;;;;;;;70.93;3.97;;;12.60;99.90;;;;;;5070551;28;20577;-84
2022/11/15 10:13:22;;;;;;;65.78;3.92;;;12.70;99.90;;;;;;5071306;28;20232;-85
2022/11/15 10:15:48;;;;;;;65.07;2.90;;;12.80;99.90;;;;;;5071925;28;20219;-85
2022/11/15 10:18:16;;;;;;;64.07;3.33;;;12.90;99.90;;;;;;5071048;28;20542;-85
2022/11/15 10:20:50;;;;;;;66.70;4.10;;;12.90;99.90;;;;;;5052481;28;20191;-86
2022/11/15 10:23:19;;;;;;;64.70;3.10;;;13.00;99.90;;;;;;5068957;28;20140;-85
2022/11/15 10:25:45;;;;;;;63.97;2.90;;;13.10;99.90;;;;;;5069911;28;20234;-84
2022/11/15 10:28:15;;;;;;;67.67;3.03;;;13.20;99.90;;;;;;5074667;28;20148;-84
2022/11/15 10:30:46;;;;;;;69.57;5.03;;;13.20;99.90;;;;;;5074293;28;20502;-85
2022/11/15 10:33:17;;;;;;;64.93;3.80;;;13.20;99.90;;;;;;5073026;28;20201;-85
2022/11/15 10:35:43;;;;;;;64.82;3.70;;;13.30;81.30;;;;;;5072967;28;20157;-85
2022/11/15 10:38:11;;;;;;;65.07;3.70;;;13.30;56.10;;;;;;5072430;28;20167;-84
2022/11/15 10:40:46;;;;;;;64.85;3.70;;;13.30;31.70;;;;;;5072021;28;20259;-84
2022/11/15 10:43:19;;;;;;;64.80;4.20;;;13.30;27.60;;;;;;5072866;28;20156;-84
2022/11/15 10:45:46;;;;;;;67.18;4.60;;;13.40;23.30;;;;;;5072977;28;20164;-83
2022/11/15 10:48:12;;;;;;;66.28;4.10;;;13.40;14.30;;;;;;5072596;28;20160;-84
2022/11/15 10:50:48;;;;;;;65.57;3.47;;;13.40;14.90;;;;;;5072399;28;20188;-84
2022/11/15 10:53:33;;;;;;;66.45;3.60;;;13.40;12.10;;;;;;5072594;28;20172;-85
2022/11/15 10:56:11;;;;;;;64.70;3.00;;;13.40;10.50;;;;;;5071376;28;20149;-84
2022/11/15 10:58:38;;;;;;;66.40;3.20;;;13.60;13.80;;;;;;5070349;28;20395;-84
2022/11/15 11:01:19;;;;;;;66.60;3.38;;;13.60;6.40;;;;;;5072026;28;20419;-85
2022/11/15 11:03:59;;;;;;;65.67;3.50;;;13.60;8.50;;;;;;5053991;28;20164;-86
2022/11/15 11:06:25;;;;;;;67.57;3.70;;;13.60;1.30;;;;;;5055767;28;20391;-85
2022/11/15 11:09:05;;;;;;;65.00;3.33;;;13.50;4.10;;;;;;5072796;28;20446;-85
2022/11/15 11:11:45;;;;;;;64.28;2.95;;;13.50;1.00;;;;;;5073357;28;20383;-85
2022/11/15 11:14:26;;;;;;;67.88;4.20;;;13.60;7.90;;;;;;5072656;28;20241;-85
2022/11/15 11:17:13;;;;;;;65.27;3.73;;;13.70;9.90;;;;;;5071570;28;20157;-84
2022/11/15 11:19:47;;;;;;;64.77;3.07;;;13.60;3.70;;;;;;5070999;28;20410;-86
2022/11/15 11:22:32;;;;;;;64.37;3.00;;;13.60;4.20;;;;;;5072013;28;20405;-86
2022/11/15 11:25:28;;;;;;;65.67;3.33;;;13.70;4.70;;;;;;5075095;28;20397;-85
2022/11/15 11:28:33;;;;;;;64.68;2.92;;;13.80;7.80;;;;;;5074130;28;20456;-86
2022/11/15 11:31:25;;;;;;;64.55;3.03;;;13.90;9.70;;;;;;5073472;28;20196;-85
2022/11/15 11:34:09;;;;;;;65.30;3.03;;;13.90;8.40;;;;;;5072565;28;20192;-86
2022/11/15 11:36:52;;;;;;;64.47;3.17;;;13.80;9.90;;;;;;5072165;28;20413;-85
2022/11/15 11:39:28;;;;;;;64.80;3.10;;;13.80;12.80;;;;;;5070762;28;20430;-86
2022/11/15 11:42:04;;;;;;;66.13;3.20;;;13.90;14.00;;;;;;5069354;28;20431;-86
2022/11/15 11:44:34;;;;;;;67.17;3.53;;;14.10;12.70;;;;;;5068744;28;20410;-86
2022/11/15 11:47:07;;;;;;;64.90;3.30;;;14.20;7.20;;;;;;5069104;28;20399;-85
2022/11/15 11:49:44;;;;;;;66.20;3.47;;;14.20;8.80;;;;;;5070661;28;20442;-86
2022/11/15 11:52:21;;;;;;;66.87;3.30;;;14.20;7.00;;;;;;5071412;28;20398;-86
2022/11/15 11:55:15;;;;;;;65.20;2.70;;;14.20;9.70;;;;;;5072578;28;20718;-86
2022/11/15 11:57:59;;;;;;;66.80;3.27;;;14.20;7.60;;;;;;5071190;28;20412;-85
2022/11/15 12:00:28;;;;;;;64.87;3.20;;;14.20;11.70;;;;;;5074541;28;20434;-85
2022/11/15 12:03:22;;;;;;;65.00;3.20;;;14.30;12.80;;;;;;5076111;28;20399;-84
2022/11/15 12:05:58;;;;;;;64.90;3.00;;;14.20;10.40;;;;;;5074312;28;20376;-84
2022/11/15 12:08:46;;;;;;;64.77;3.07;;;14.20;12.60;;;;;;5075352;28;20390;-84
2022/11/15 12:11:23;;;;;;;64.57;2.87;;;14.30;13.00;;;;;;5075342;28;20398;-85
2022/11/15 12:13:55;;;;;;;67.77;3.60;;;14.30;15.90;;;;;;5074940;28;20418;-85
2022/11/15 12:16:28;;;;;;;73.80;3.77;;;14.30;13.70;;;;;;5075399;28;20380;-85
2022/11/15 12:18:58;;;;;;;66.40;3.57;;;14.30;15.90;;;;;;5074974;28;20429;-86
2022/11/15 12:21:48;;;;;;;64.40;3.07;;;14.30;15.80;;;;;;5057434;28;20384;-85
2022/11/15 12:24:29;;;;;;;65.53;3.60;;;14.40;15.70;;;;;;5073148;28;20411;-85
2022/11/15 12:27:01;;;;;;;66.83;3.03;;;14.40;15.20;;;;;;5074432;28;20475;-85
2022/11/15 12:29:38;;;;;;;66.17;3.37;;;14.50;11.40;;;;;;5073100;28;20423;-86
2022/11/15 12:32:14;;;;;;;67.47;3.37;;;14.40;10.10;;;;;;5073329;28;20406;-86
2022/11/15 12:34:46;;;;;;;65.90;2.83;;;14.30;11.00;;;;;;5054743;28;20486;-86
2022/11/15 12:37:45;;;;;;;64.67;2.90;;;14.30;16.50;;;;;;5073751;28;20387;-85
2022/11/15 12:40:21;;;;;;;64.67;2.93;;;14.30;20.00;;;;;;5072452;28;20446;-85
2022/11/15 12:43:00;;;;;;;66.80;3.37;;;14.30;21.10;;;;;;5073639;28;20824;-86
2022/11/15 12:45:44;;;;;;;65.83;2.70;;;14.30;19.90;;;;;;5055540;28;20414;-85
2022/11/15 12:48:16;;;;;;;66.00;3.03;;;14.30;22.80;;;;;;5072908;28;20443;-85
2022/11/15 12:50:58;;;;;;;68.07;3.57;;;14.40;24.00;;;;;;5073221;28;20474;-86
2022/11/15 12:53:24;;;;;;;65.43;3.50;;;14.30;26.10;;;;;;5055248;28;20439;-86
2022/11/15 12:56:20;;;;;;;65.83;3.17;;;14.40;29.00;;;;;;5072880;28;20410;-87
2022/11/15 12:59:01;;;;;;;67.97;3.77;;;14.40;27.20;;;;;;5070462;28;20390;-85
2022/11/15 13:01:33;;;;;;;65.97;3.30;;;14.40;27.70;;;;;;5069869;28;20395;-85
2022/11/15 13:04:19;;;;;;;65.47;3.60;;;14.30;31.40;;;;;;5070672;28;20399;-85
2022/11/15 13:06:49;;;;;;;65.30;3.53;;;14.40;31.40;;;;;;5061513;28;20423;-85
2022/11/15 13:09:35;;;;;;;65.20;3.93;;;14.30;31.10;;;;;;5053878;28;20443;-86